createdAt,value
2022-08-24T00:01:48.596Z,43.50
2022-08-24T00:03:55.162Z,43.40
2022-08-24T00:05:57.373Z,43.50
2022-08-24T00:07:59.127Z,43.70
2022-08-24T00:10:01.773Z,43.60
2022-08-24T00:12:05.139Z,43.70
2022-08-24T00:14:06.946Z,43.70
2022-08-24T00:16:10.668Z,43.90
2022-08-24T00:18:12.923Z,43.90
2022-08-24T00:20:16.705Z,43.90
2022-08-24T00:22:18.768Z,43.80
2022-08-24T00:24:20.871Z,43.70
2022-08-24T00:26:28.618Z,43.60
2022-08-24T00:28:31.129Z,43.60
2022-08-24T00:30:33.731Z,43.70
2022-08-24T00:32:37.677Z,43.70
2022-08-24T00:34:39.350Z,43.70
2022-08-24T00:36:42.071Z,43.50
2022-08-24T00:38:43.978Z,43.40
2022-08-24T00:40:47.686Z,43.40
2022-08-24T00:42:50.666Z,43.40
2022-08-24T00:44:52.754Z,43.20
2022-08-24T00:47:00.102Z,43.10
2022-08-24T00:49:11.925Z,43.10
2022-08-24T00:51:43.416Z,43.00
2022-08-24T00:53:55.872Z,43.00
2022-08-24T00:56:03.839Z,42.90
2022-08-24T00:58:17.204Z,42.80
2022-08-24T01:00:26.530Z,42.50
2022-08-24T01:02:32.849Z,42.70
2022-08-24T01:04:42.856Z,42.70
2022-08-24T01:06:45.447Z,42.60
2022-08-24T01:08:47.162Z,42.60
2022-08-24T01:11:01.894Z,42.50
2022-08-24T01:13:07.245Z,42.50
2022-08-24T01:15:11.206Z,42.40
2022-08-24T01:17:37.483Z,42.20
2022-08-24T01:19:48.845Z,42.20
2022-08-24T01:22:35.733Z,42.00
2022-08-24T01:24:38.141Z,41.90
2022-08-24T01:26:49.535Z,41.90
2022-08-24T01:28:56.089Z,42.20
2022-08-24T01:30:59.070Z,42.30
2022-08-24T01:33:03.976Z,42.60
2022-08-24T01:35:06.456Z,42.70
2022-08-24T01:37:10.904Z,43.00
2022-08-24T01:39:15.124Z,43.90
2022-08-24T01:41:16.817Z,43.50
2022-08-24T01:43:18.471Z,43.60
2022-08-24T01:45:20.662Z,43.80
2022-08-24T01:47:22.604Z,44.00
2022-08-24T01:49:28.800Z,44.10
2022-08-24T01:51:32.548Z,44.20
2022-08-24T01:53:34.359Z,44.30
2022-08-24T01:55:36.603Z,44.30
2022-08-24T01:57:38.395Z,44.40
2022-08-24T01:59:40.347Z,44.40
2022-08-24T02:01:48.935Z,44.40
2022-08-24T02:03:51.747Z,44.50
2022-08-24T02:05:53.794Z,44.50
2022-08-24T02:07:58.278Z,44.70
2022-08-24T02:10:00.026Z,45.00
2022-08-24T02:12:02.344Z,45.20
2022-08-24T02:14:05.193Z,45.20
2022-08-24T02:16:08.191Z,45.20
2022-08-24T02:18:15.029Z,45.40
2022-08-24T02:20:17.622Z,45.50
2022-08-24T02:22:19.715Z,45.60
2022-08-24T02:24:21.531Z,45.60
2022-08-24T02:26:23.275Z,45.70
2022-08-24T02:28:30.096Z,45.70
2022-08-24T02:30:32.798Z,45.70
2022-08-24T02:32:34.664Z,45.70
2022-08-24T02:34:36.435Z,45.70
2022-08-24T02:36:38.948Z,45.80
2022-08-24T02:38:41.077Z,45.70
2022-08-24T02:40:43.450Z,45.80
2022-08-24T02:42:45.859Z,45.90
2022-08-24T02:44:48.078Z,45.90
2022-08-24T02:46:51.195Z,45.70
2022-08-24T02:48:58.093Z,45.90
2022-08-24T02:51:26.127Z,45.90
2022-08-24T02:53:29.379Z,45.90
2022-08-24T02:55:31.069Z,45.90
2022-08-24T02:57:32.760Z,45.90
2022-08-24T02:59:34.499Z,45.90
2022-08-24T03:01:36.746Z,45.90
2022-08-24T03:03:39.459Z,45.90
2022-08-24T03:05:41.277Z,45.90
2022-08-24T03:07:43.550Z,45.90
2022-08-24T03:09:45.335Z,45.80
2022-08-24T03:11:47.042Z,45.80
2022-08-24T03:13:48.741Z,45.70
2022-08-24T03:15:50.439Z,45.80
2022-08-24T03:17:52.169Z,46.60
2022-08-24T03:19:54.059Z,46.60
2022-08-24T03:21:56.383Z,45.90
2022-08-24T03:23:58.324Z,46.00
2022-08-24T03:26:01.860Z,46.00
2022-08-24T03:28:03.826Z,46.70
2022-08-24T03:30:14.794Z,46.10
2022-08-24T03:32:16.627Z,46.20
2022-08-24T03:34:19.666Z,46.30
2022-08-24T03:36:21.491Z,46.30
2022-08-24T03:38:23.886Z,46.40
2022-08-24T03:40:25.886Z,46.50
2022-08-24T03:42:27.714Z,47.40
2022-08-24T03:44:29.392Z,46.70
2022-08-24T03:46:36.390Z,46.60
2022-08-24T03:48:40.170Z,46.50
2022-08-24T03:50:45.252Z,46.50
2022-08-24T03:52:47.688Z,46.90
2022-08-24T03:54:49.403Z,47.30
2022-08-24T03:56:51.141Z,47.20
2022-08-24T03:58:53.574Z,48.20
2022-08-24T04:00:55.420Z,47.20
2022-08-24T04:02:57.767Z,47.00
2022-08-24T04:04:59.570Z,48.10
2022-08-24T04:07:01.218Z,48.90
2022-08-24T04:09:03.755Z,49.10
2022-08-24T04:11:06.149Z,48.90
2022-08-24T04:13:08.505Z,48.00
2022-08-24T04:15:11.007Z,47.90
2022-08-24T04:17:12.706Z,48.20
2022-08-24T04:19:14.716Z,47.90
2022-08-24T04:21:19.341Z,47.50
2022-08-24T04:23:21.044Z,47.30
2022-08-24T04:25:25.494Z,47.30
2022-08-24T04:27:27.220Z,47.60
2022-08-24T04:29:28.926Z,47.80
2022-08-24T04:31:31.258Z,47.80
2022-08-24T04:33:33.219Z,48.10
2022-08-24T04:35:39.894Z,48.90
2022-08-24T04:37:41.551Z,48.30
2022-08-24T04:39:44.119Z,48.90
2022-08-24T04:41:47.698Z,48.50
2022-08-24T04:43:52.232Z,48.00
2022-08-24T04:45:54.298Z,47.90
2022-08-24T04:47:56.097Z,48.00
2022-08-24T04:49:58.708Z,48.30
2022-08-24T04:52:00.922Z,48.40
2022-08-24T04:54:02.628Z,47.80
2022-08-24T04:56:09.676Z,47.60
2022-08-24T04:58:13.291Z,47.50
2022-08-24T05:00:15.283Z,47.20
2022-08-24T05:02:17.328Z,47.30
2022-08-24T05:04:19.005Z,47.10
2022-08-24T05:06:23.096Z,47.60
2022-08-24T05:08:24.774Z,47.50
2022-08-24T05:10:27.519Z,47.70
2022-08-24T05:12:35.339Z,48.20
2022-08-24T05:14:37.006Z,47.90
2022-08-24T05:16:38.798Z,48.20
2022-08-24T05:18:48.216Z,48.10
2022-08-24T05:20:49.892Z,48.20
2022-08-24T05:22:55.659Z,47.60
2022-08-24T05:24:58.085Z,47.50
2022-08-24T05:27:00.386Z,47.30
2022-08-24T05:29:02.893Z,47.20
2022-08-24T05:31:16.432Z,47.00
2022-08-24T05:33:18.202Z,46.90
2022-08-24T05:35:19.974Z,47.20
2022-08-24T05:37:21.765Z,47.50
2022-08-24T05:39:23.434Z,47.70
2022-08-24T05:41:25.429Z,47.60
2022-08-24T05:43:27.295Z,47.30
2022-08-24T05:45:29.016Z,47.10
2022-08-24T05:47:30.729Z,47.10
2022-08-24T05:49:38.318Z,46.90
2022-08-24T05:51:42.944Z,46.80
2022-08-24T05:53:44.831Z,46.70
2022-08-24T05:55:47.037Z,46.70
2022-08-24T05:57:50.267Z,46.60
2022-08-24T05:59:52.906Z,46.50
2022-08-24T06:01:54.662Z,46.60
2022-08-24T06:03:57.489Z,46.60
2022-08-24T06:05:59.364Z,46.60
2022-08-24T06:08:01.152Z,46.60
2022-08-24T06:10:20.228Z,46.60
2022-08-24T06:12:24.818Z,46.50
2022-08-24T06:14:27.152Z,46.60
2022-08-24T06:16:29.437Z,46.50
2022-08-24T06:18:31.362Z,46.50
2022-08-24T06:20:38.450Z,46.40
2022-08-24T06:22:40.219Z,46.20
2022-08-24T06:25:00.804Z,46.30
2022-08-24T06:27:20.901Z,46.40
2022-08-24T06:29:22.786Z,46.50
2022-08-24T06:31:24.734Z,46.70
2022-08-24T06:33:26.455Z,46.80
2022-08-24T06:35:28.470Z,46.80
2022-08-24T06:37:31.091Z,46.70
2022-08-24T06:39:33.160Z,46.70
2022-08-24T06:41:36.173Z,46.60
2022-08-24T06:43:38.147Z,46.50
2022-08-24T06:45:44.975Z,46.40
2022-08-24T06:47:46.762Z,46.30
2022-08-24T06:49:48.905Z,46.30
2022-08-24T06:51:51.352Z,46.40
2022-08-24T06:53:56.101Z,46.40
2022-08-24T06:55:58.953Z,46.30
2022-08-24T06:58:02.582Z,46.20
2022-08-24T07:00:06.186Z,46.20
2022-08-24T07:02:08.394Z,46.10
2022-08-24T07:04:10.546Z,46.10
2022-08-24T07:06:14.076Z,46.10
2022-08-24T07:08:15.895Z,46.00
2022-08-24T07:10:17.607Z,45.70
2022-08-24T07:12:24.881Z,45.70
2022-08-24T07:14:26.551Z,45.60
2022-08-24T07:16:28.542Z,46.20
2022-08-24T07:18:30.287Z,45.60
2022-08-24T07:20:32.056Z,45.60
2022-08-24T07:22:33.709Z,45.50
2022-08-24T07:24:35.368Z,45.60
2022-08-24T07:26:38.818Z,45.60
2022-08-24T07:28:40.811Z,45.50
2022-08-24T07:30:43.116Z,45.50
2022-08-24T07:32:44.833Z,45.40
2022-08-24T07:34:46.739Z,45.50
2022-08-24T07:36:50.601Z,45.50
2022-08-24T07:38:52.783Z,45.50
2022-08-24T07:41:20.155Z,45.50
2022-08-24T07:43:17.596Z,45.50
2022-08-24T07:45:20.040Z,45.50
2022-08-24T07:47:37.789Z,45.60
2022-08-24T07:49:41.304Z,45.60
2022-08-24T07:51:46.662Z,45.50
2022-08-24T07:53:54.068Z,45.50
2022-08-24T07:55:57.041Z,45.50
2022-08-24T07:57:59.471Z,45.50
2022-08-24T08:00:01.967Z,45.50
2022-08-24T08:02:08.166Z,45.50
2022-08-24T08:04:10.319Z,45.60
2022-08-24T08:06:16.262Z,45.70
2022-08-24T08:08:20.157Z,45.70
2022-08-24T08:10:23.317Z,45.50
2022-08-24T08:12:25.060Z,45.40
2022-08-24T08:14:26.731Z,45.30
2022-08-24T08:16:28.497Z,45.10
2022-08-24T08:18:31.032Z,45.00
2022-08-24T08:20:33.186Z,45.50
2022-08-24T08:22:53.832Z,44.90
2022-08-24T08:24:55.528Z,44.60
2022-08-24T08:26:57.873Z,44.60
2022-08-24T08:28:59.811Z,44.40
2022-08-24T08:31:03.136Z,44.70
2022-08-24T08:33:05.751Z,44.00
2022-08-24T08:35:08.004Z,43.90
2022-08-24T08:37:10.288Z,43.50
2022-08-24T08:39:15.808Z,43.60
2022-08-24T08:41:25.909Z,43.60
2022-08-24T08:43:45.139Z,43.40
2022-08-24T08:46:07.182Z,43.60
2022-08-24T08:48:47.908Z,43.50
2022-08-24T08:51:21.815Z,43.40
2022-08-24T08:54:11.017Z,43.50
2022-08-24T08:56:48.283Z,43.20
2022-08-24T08:59:03.566Z,43.40
2022-08-24T09:01:32.663Z,42.80
2022-08-24T09:04:11.309Z,43.00
2022-08-24T09:06:35.225Z,43.00
2022-08-24T09:08:54.024Z,42.60
2022-08-24T09:11:00.104Z,42.60
2022-08-24T09:13:28.981Z,43.00
2022-08-24T09:15:36.964Z,42.90
2022-08-24T09:17:44.978Z,43.00
2022-08-24T09:20:12.511Z,42.70
2022-08-24T09:22:19.816Z,42.90
2022-08-24T09:24:26.167Z,42.80
2022-08-24T09:26:31.442Z,42.90
2022-08-24T09:28:43.731Z,42.90
2022-08-24T09:31:09.531Z,42.80
2022-08-24T09:33:35.474Z,42.70
2022-08-24T09:35:45.853Z,42.60
2022-08-24T09:38:07.571Z,42.50
2022-08-24T09:40:21.366Z,42.60
2022-08-24T09:43:07.399Z,42.30
2022-08-24T09:45:35.059Z,42.40
2022-08-24T09:47:39.903Z,42.30
2022-08-24T09:50:05.914Z,42.40
2022-08-24T09:52:58.995Z,42.30
2022-08-24T09:55:06.687Z,42.10
2022-08-24T09:57:30.701Z,42.30
2022-08-24T10:00:11.257Z,42.40
2022-08-24T10:02:50.541Z,42.50
2022-08-24T10:05:15.481Z,42.40
2022-08-24T10:07:27.461Z,42.50
2022-08-24T10:09:58.119Z,43.00
2022-08-24T10:12:24.213Z,42.10
2022-08-24T10:14:40.677Z,42.50
2022-08-24T10:16:54.741Z,42.10
2022-08-24T10:18:59.992Z,41.80
2022-08-24T10:21:20.668Z,42.20
2022-08-24T10:23:25.148Z,41.90
2022-08-24T10:25:44.944Z,41.90
2022-08-24T10:27:56.287Z,42.00
2022-08-24T10:30:01.020Z,41.90
2022-08-24T10:32:30.238Z,42.00
2022-08-24T10:34:37.576Z,42.80
2022-08-24T10:36:55.398Z,42.90
2022-08-24T10:39:21.393Z,42.10
2022-08-24T10:41:51.907Z,42.00
2022-08-24T10:44:20.156Z,41.80
2022-08-24T10:46:46.607Z,41.80
2022-08-24T10:49:09.876Z,41.90
2022-08-24T10:51:50.040Z,41.80
2022-08-24T10:53:53.634Z,41.70
2022-08-24T10:56:09.463Z,42.10
2022-08-24T10:58:44.896Z,42.00
2022-08-24T11:00:46.921Z,41.50
2022-08-24T11:02:48.875Z,41.60
2022-08-24T11:04:57.051Z,41.60
2022-08-24T11:07:20.200Z,42.00
2022-08-24T11:09:21.912Z,41.70
2022-08-24T11:11:41.788Z,41.80
2022-08-24T11:13:52.401Z,41.60
2022-08-24T11:16:00.928Z,41.80
2022-08-24T11:18:04.647Z,41.80
2022-08-24T11:20:29.843Z,41.90
2022-08-24T11:22:57.188Z,41.80
2022-08-24T11:25:03.464Z,41.80
2022-08-24T11:27:17.084Z,41.80
2022-08-24T11:29:21.089Z,41.90
2022-08-24T11:31:35.730Z,42.20
2022-08-24T11:33:58.319Z,42.20
2022-08-24T11:36:01.589Z,41.80
2022-08-24T11:38:10.024Z,42.10
2022-08-24T11:40:13.709Z,41.90
2022-08-24T11:42:37.739Z,41.90
2022-08-24T11:44:42.227Z,41.90
2022-08-24T11:47:05.795Z,41.90
2022-08-24T11:49:17.590Z,41.90
2022-08-24T11:51:22.395Z,41.90
2022-08-24T11:53:48.481Z,41.70
2022-08-24T11:56:44.143Z,41.70
2022-08-24T11:58:49.773Z,41.80
2022-08-24T12:01:14.477Z,41.80
2022-08-24T12:03:35.109Z,41.60
2022-08-24T12:06:07.656Z,41.60
2022-08-24T12:08:34.951Z,41.60
2022-08-24T12:11:02.424Z,41.50
2022-08-24T12:13:16.996Z,41.80
2022-08-24T12:15:37.744Z,41.70
2022-08-24T12:17:50.300Z,41.60
2022-08-24T12:20:00.315Z,41.80
2022-08-24T12:22:06.281Z,42.40
2022-08-24T12:24:13.672Z,41.50
2022-08-24T12:26:21.244Z,41.70
2022-08-24T12:28:38.220Z,41.60
2022-08-24T12:30:39.979Z,42.20
2022-08-24T12:32:57.874Z,41.60
2022-08-24T12:35:37.980Z,41.60
2022-08-24T12:37:47.492Z,41.40
2022-08-24T12:39:55.059Z,41.70
2022-08-24T12:42:17.180Z,41.50
2022-08-24T12:44:25.497Z,41.70
2022-08-24T12:46:27.684Z,41.60
2022-08-24T12:48:56.913Z,41.80
2022-08-24T12:51:09.155Z,41.70
2022-08-24T12:53:48.441Z,41.60
2022-08-24T12:56:33.396Z,41.60
2022-08-24T12:58:54.136Z,42.40
2022-08-24T13:00:57.618Z,41.70
2022-08-24T13:03:04.327Z,41.70
2022-08-24T13:05:15.355Z,41.70
2022-08-24T13:07:19.892Z,41.70
2022-08-24T13:09:30.914Z,41.80
2022-08-24T13:11:34.888Z,41.70
2022-08-24T13:14:22.105Z,41.70
2022-08-24T13:16:56.271Z,41.90
2022-08-24T13:19:22.498Z,41.90
2022-08-24T13:21:44.372Z,42.20
2022-08-24T13:23:46.077Z,42.10
2022-08-24T13:25:47.766Z,42.10
2022-08-24T13:28:03.185Z,41.90
2022-08-24T13:30:18.232Z,41.90
2022-08-24T13:32:31.637Z,41.90
2022-08-24T13:34:41.225Z,41.90
2022-08-24T13:37:10.105Z,41.90
2022-08-24T13:39:44.676Z,41.90
2022-08-24T13:42:04.956Z,42.00
2022-08-24T13:44:14.687Z,42.00
2022-08-24T13:46:41.098Z,42.00
2022-08-24T13:49:00.914Z,42.00
2022-08-24T13:51:25.610Z,42.00
2022-08-24T13:53:49.128Z,42.10
2022-08-24T13:55:53.319Z,42.10
2022-08-24T13:58:33.778Z,42.20
2022-08-24T14:00:46.600Z,42.20
2022-08-24T14:03:08.818Z,42.20
2022-08-24T14:05:36.938Z,42.20
2022-08-24T14:08:05.417Z,42.20
2022-08-24T14:10:13.989Z,42.20
2022-08-24T14:12:21.569Z,42.20
2022-08-24T14:14:40.365Z,42.30
2022-08-24T14:17:19.872Z,42.20
2022-08-24T14:19:54.949Z,42.30
2022-08-24T14:22:14.873Z,42.30
2022-08-24T14:24:45.728Z,42.30
2022-08-24T14:26:52.346Z,42.30
2022-08-24T14:29:14.598Z,42.30
2022-08-24T14:31:30.530Z,42.30
2022-08-24T14:33:35.290Z,42.30
2022-08-24T14:35:42.448Z,42.30
2022-08-24T14:38:12.721Z,42.30
2022-08-24T14:40:35.017Z,42.30
2022-08-24T14:43:00.595Z,42.40
2022-08-24T14:45:14.465Z,42.30
2022-08-24T14:47:45.260Z,42.30
2022-08-24T14:50:12.622Z,42.40
2022-08-24T14:52:29.742Z,42.30
2022-08-24T14:54:49.319Z,42.40
2022-08-24T14:56:59.483Z,42.40
2022-08-24T14:59:08.314Z,42.40
2022-08-24T15:01:19.130Z,42.40
2022-08-24T15:03:26.548Z,42.40
2022-08-24T15:05:34.677Z,42.30
2022-08-24T15:07:37.242Z,42.40
2022-08-24T15:09:43.053Z,42.40
2022-08-24T15:11:46.206Z,42.30
2022-08-24T15:14:06.223Z,42.30
2022-08-24T15:16:14.750Z,42.30
2022-08-24T15:18:34.839Z,42.30
2022-08-24T15:20:46.769Z,42.40
2022-08-24T15:23:04.023Z,42.30
2022-08-24T15:25:35.484Z,42.40
2022-08-24T15:27:48.800Z,42.40
2022-08-24T15:29:57.556Z,42.40
2022-08-24T15:32:11.922Z,42.70
2022-08-24T15:34:13.699Z,42.70
2022-08-24T15:36:19.236Z,42.60
2022-08-24T15:38:33.175Z,42.50
2022-08-24T15:40:34.889Z,42.50
2022-08-24T15:42:38.523Z,42.50
2022-08-24T15:44:43.256Z,42.60
2022-08-24T15:46:52.623Z,43.20
2022-08-24T15:49:05.529Z,42.60
2022-08-24T15:51:07.660Z,43.20
2022-08-24T15:53:34.008Z,42.60
2022-08-24T15:55:45.050Z,42.60
2022-08-24T15:57:47.421Z,42.90
2022-08-24T15:59:51.885Z,43.10
2022-08-24T16:02:26.110Z,43.60
2022-08-24T16:04:47.124Z,43.80
2022-08-24T16:06:48.798Z,44.00
2022-08-24T16:09:05.558Z,44.00
2022-08-24T16:11:21.374Z,44.20
2022-08-24T16:13:30.140Z,44.20
2022-08-24T16:15:32.161Z,44.00
2022-08-24T16:17:59.339Z,43.90
2022-08-24T16:20:05.816Z,43.80
2022-08-24T16:22:12.531Z,44.30
2022-08-24T16:24:28.350Z,44.20
2022-08-24T16:26:49.919Z,44.00
2022-08-24T16:28:54.773Z,44.10
2022-08-24T16:30:59.287Z,43.90
2022-08-24T16:33:05.505Z,44.20
2022-08-24T16:35:07.751Z,44.20
2022-08-24T16:37:09.481Z,44.40
2022-08-24T16:39:11.944Z,44.20
2022-08-24T16:41:16.188Z,44.60
2022-08-24T16:43:17.931Z,43.70
2022-08-24T16:45:21.683Z,43.60
2022-08-24T16:47:23.914Z,43.80
2022-08-24T16:49:25.771Z,43.80
2022-08-24T16:51:27.568Z,43.50
2022-08-24T16:53:29.595Z,43.40
2022-08-24T16:55:31.798Z,43.50
2022-08-24T16:57:37.689Z,43.60
2022-08-24T16:59:41.697Z,43.50
2022-08-24T17:01:43.398Z,43.60
2022-08-24T17:03:45.499Z,43.70
2022-08-24T17:05:47.355Z,43.60
2022-08-24T17:07:50.729Z,45.20
2022-08-24T17:09:52.676Z,47.00
2022-08-24T17:11:54.464Z,48.00
2022-08-24T17:13:56.248Z,47.30
2022-08-24T17:15:59.485Z,47.10
2022-08-24T17:18:06.235Z,46.00
2022-08-24T17:20:10.915Z,46.50
2022-08-24T17:22:16.254Z,46.30
2022-08-24T17:24:20.918Z,46.00
2022-08-24T17:26:22.784Z,46.30
2022-08-24T17:28:24.581Z,46.30
2022-08-24T17:30:26.778Z,46.30
2022-08-24T17:32:32.449Z,46.50
2022-08-24T17:34:34.715Z,46.30
2022-08-24T17:36:36.472Z,46.00
2022-08-24T17:38:45.894Z,45.20
2022-08-24T17:40:47.582Z,45.40
2022-08-24T17:42:51.652Z,45.30
2022-08-24T17:44:53.946Z,45.30
2022-08-24T17:46:59.414Z,45.50
2022-08-24T17:49:03.209Z,45.30
2022-08-24T17:51:04.951Z,45.40
2022-08-24T17:53:06.718Z,45.70
2022-08-24T17:55:10.803Z,45.40
2022-08-24T17:57:13.317Z,45.10
2022-08-24T17:59:24.885Z,45.40
2022-08-24T18:01:27.660Z,45.40
2022-08-24T18:03:29.415Z,45.30
2022-08-24T18:05:33.004Z,45.40
2022-08-24T18:07:52.449Z,45.40
2022-08-24T18:10:00.244Z,45.70
2022-08-24T18:12:03.925Z,45.30
2022-08-24T18:14:05.642Z,45.40
2022-08-24T18:16:22.473Z,45.30
2022-08-24T18:18:24.195Z,45.30
2022-08-24T18:20:29.845Z,45.20
2022-08-24T18:22:31.493Z,45.30
2022-08-24T18:24:33.455Z,45.40
2022-08-24T18:26:35.328Z,45.50
2022-08-24T18:28:37.208Z,45.60
2022-08-24T18:30:41.189Z,45.60
2022-08-24T18:32:42.910Z,45.70
2022-08-24T18:34:44.597Z,45.70
2022-08-24T18:36:46.829Z,45.80
2022-08-24T18:38:48.522Z,45.90
2022-08-24T18:40:52.565Z,46.40
2022-08-24T18:42:56.059Z,46.20
2022-08-24T18:44:58.214Z,46.30
2022-08-24T18:46:59.955Z,46.20
2022-08-24T18:49:01.954Z,46.20
2022-08-24T18:51:03.923Z,46.30
2022-08-24T18:53:05.919Z,46.30
2022-08-24T18:55:08.799Z,46.40
2022-08-24T18:57:11.368Z,46.30
2022-08-24T18:59:15.108Z,46.40
2022-08-24T19:01:17.116Z,46.30
2022-08-24T19:03:21.388Z,46.30
2022-08-24T19:05:24.864Z,46.40
2022-08-24T19:07:27.766Z,46.70
2022-08-24T19:09:33.922Z,46.70
2022-08-24T19:11:36.373Z,48.60
2022-08-24T19:13:39.704Z,48.40
2022-08-24T19:15:42.700Z,47.90
2022-08-24T19:17:44.653Z,49.20
2022-08-24T19:19:46.586Z,48.40
2022-08-24T19:21:48.303Z,47.90
2022-08-24T19:23:50.073Z,47.70
2022-08-24T19:25:52.211Z,48.20
2022-08-24T19:27:55.141Z,47.60
2022-08-24T19:29:57.009Z,47.70
2022-08-24T19:31:59.077Z,48.00
2022-08-24T19:34:03.415Z,48.00
2022-08-24T19:36:06.155Z,48.00
2022-08-24T19:38:07.857Z,48.30
2022-08-24T19:40:09.981Z,48.50
2022-08-24T19:42:13.488Z,48.70
2022-08-24T19:44:37.618Z,48.30
2022-08-24T19:46:39.820Z,48.50
2022-08-24T19:48:41.644Z,48.40
2022-08-24T19:50:43.805Z,48.60
2022-08-24T19:52:46.152Z,48.50
2022-08-24T19:54:48.334Z,48.30
2022-08-24T19:56:53.152Z,49.00
2022-08-24T19:58:57.837Z,48.70
2022-08-24T20:01:17.198Z,48.60
2022-08-24T20:03:18.948Z,48.50
2022-08-24T20:05:22.641Z,48.60
2022-08-24T20:07:24.311Z,48.50
2022-08-24T20:09:26.012Z,48.50
2022-08-24T20:11:28.392Z,48.60
2022-08-24T20:13:30.069Z,48.60
2022-08-24T20:15:32.764Z,48.80
2022-08-24T20:17:36.068Z,48.90
2022-08-24T20:19:38.865Z,49.10
2022-08-24T20:21:40.790Z,48.90
2022-08-24T20:23:43.139Z,49.80
2022-08-24T20:25:44.949Z,49.00
2022-08-24T20:27:58.090Z,48.90
2022-08-24T20:30:09.307Z,48.80
2022-08-24T20:32:10.995Z,48.80
2022-08-24T20:34:15.041Z,48.80
2022-08-24T20:36:39.174Z,48.70
2022-08-24T20:38:40.854Z,48.60
2022-08-24T20:40:43.110Z,48.70
2022-08-24T20:42:45.204Z,48.70
2022-08-24T20:44:46.855Z,48.70
2022-08-24T20:46:49.463Z,48.70
2022-08-24T20:48:52.425Z,48.70
2022-08-24T20:50:57.638Z,49.40
2022-08-24T20:52:59.313Z,48.80
2022-08-24T20:55:04.735Z,48.80
2022-08-24T20:57:08.882Z,48.80
2022-08-24T20:59:12.466Z,48.80
2022-08-24T21:01:14.267Z,48.80
2022-08-24T21:03:18.417Z,48.80
2022-08-24T21:05:20.980Z,48.70
2022-08-24T21:07:22.832Z,48.80
2022-08-24T21:09:24.609Z,49.00
2022-08-24T21:11:26.502Z,48.90
2022-08-24T21:13:28.248Z,48.70
2022-08-24T21:15:29.977Z,48.70
2022-08-24T21:17:31.862Z,48.70
2022-08-24T21:19:34.188Z,48.50
2022-08-24T21:21:39.647Z,48.50
2022-08-24T21:23:44.137Z,48.40
2022-08-24T21:25:46.273Z,48.30
2022-08-24T21:27:48.468Z,48.50
2022-08-24T21:29:50.128Z,48.30
2022-08-24T21:32:10.547Z,48.60
2022-08-24T21:34:30.812Z,48.60
2022-08-24T21:36:32.846Z,48.60
2022-08-24T21:38:34.925Z,48.60
2022-08-24T21:40:37.867Z,48.60
2022-08-24T21:42:39.547Z,48.50
2022-08-24T21:44:42.229Z,48.60
2022-08-24T21:46:44.069Z,48.50
2022-08-24T21:48:46.770Z,48.50
2022-08-24T21:50:48.735Z,48.60
2022-08-24T21:52:51.205Z,48.60
2022-08-24T21:54:56.308Z,48.50
2022-08-24T21:56:58.283Z,49.20
2022-08-24T21:59:00.203Z,48.50
2022-08-24T22:01:02.106Z,49.20
2022-08-24T22:03:05.049Z,48.70
2022-08-24T22:05:07.446Z,48.50
2022-08-24T22:07:12.240Z,48.70
2022-08-24T22:09:14.000Z,48.80
2022-08-24T22:11:18.506Z,48.50
2022-08-24T22:13:20.234Z,48.80
2022-08-24T22:15:23.125Z,48.50
2022-08-24T22:17:25.127Z,48.50
2022-08-24T22:19:26.807Z,48.50
2022-08-24T22:21:30.595Z,48.50
2022-08-24T22:23:32.416Z,49.40
2022-08-24T22:25:34.603Z,48.60
2022-08-24T22:27:36.283Z,48.60
2022-08-24T22:29:38.016Z,48.60
2022-08-24T22:31:41.897Z,48.60
2022-08-24T22:33:44.016Z,48.70
2022-08-24T22:35:45.801Z,48.70
2022-08-24T22:37:47.740Z,48.80
2022-08-24T22:39:49.708Z,48.80
2022-08-24T22:41:51.756Z,49.00
2022-08-24T22:44:12.272Z,49.10
2022-08-24T22:46:14.577Z,49.20
2022-08-24T22:48:16.332Z,49.30
2022-08-24T22:50:18.151Z,49.30
2022-08-24T22:52:19.830Z,49.00
2022-08-24T22:54:23.847Z,49.10
2022-08-24T22:56:29.451Z,49.20
2022-08-24T22:58:31.171Z,49.40
2022-08-24T23:00:32.856Z,49.50
2022-08-24T23:02:34.571Z,49.40
2022-08-24T23:04:38.804Z,49.40
2022-08-24T23:06:41.608Z,49.40
2022-08-24T23:08:43.628Z,49.70
2022-08-24T23:10:45.372Z,49.60
2022-08-24T23:12:47.043Z,49.40
2022-08-24T23:14:53.045Z,49.50
2022-08-24T23:16:54.738Z,49.40
2022-08-24T23:19:14.746Z,50.00
2022-08-24T23:21:16.518Z,50.00
2022-08-24T23:23:18.229Z,49.80
2022-08-24T23:25:20.003Z,49.30
2022-08-24T23:27:21.967Z,49.20
2022-08-24T23:29:24.196Z,49.10
2022-08-24T23:31:27.084Z,49.10
2022-08-24T23:33:28.761Z,49.30
2022-08-24T23:35:35.660Z,49.30
2022-08-24T23:37:37.354Z,49.20
2022-08-24T23:39:39.155Z,49.20
2022-08-24T23:41:44.260Z,49.30
2022-08-24T23:43:48.050Z,49.30
2022-08-24T23:45:52.841Z,49.60
2022-08-24T23:47:57.088Z,49.60
2022-08-24T23:49:59.012Z,49.70
2022-08-24T23:52:01.300Z,49.80
2022-08-24T23:54:04.522Z,49.70
2022-08-24T23:56:09.640Z,49.70
2022-08-24T23:58:11.312Z,49.90
